Time;durP1;ratioP1;P1;durP2;ratioP2;P2;SDS_P1;SDS_P2;PMS_P1;PMS_P2;Temp;Humidity;BMP_temperature;BMP_pressure;BME280_temperature;BME280_humidity;BME280_pressure;Samples;Min_cycle;Max_cycle;Signal;HPM_P1;HPM_P2
2023/03/23 00:01:21;;;;;;;;;;;;;;;26.26;37.96;97312.63;7395271;19;19926;-84
2023/03/23 00:03:51;;;;;;;;;;;;;;;26.37;37.48;97305.25;7395146;19;19966;-84
2023/03/23 00:06:18;;;;;;;;;;;;;;;26.53;37.61;97305.97;7394244;19;19925;-84
2023/03/23 00:08:45;;;;;;;;;;;;;;;26.48;37.65;97313.63;7395370;19;19917;-84
2023/03/23 00:11:16;;;;;;;;;;;;;;;26.45;36.95;97319.88;7392821;19;19915;-84
2023/03/23 00:13:42;;;;;;;;;;;;;;;26.51;37.02;97309.47;7392516;19;19922;-85
2023/03/23 00:16:16;;;;;;;;;;;;;;;26.60;37.16;97328.41;7396644;19;19978;-84
2023/03/23 00:18:44;;;;;;;;;;;;;;;26.67;37.04;97321.59;7395106;19;19959;-84
2023/03/23 00:21:10;;;;;;;;;;;;;;;26.71;37.43;97333.19;7392596;19;20321;-84
2023/03/23 00:23:36;;;;;;;;;;;;;;;26.82;37.23;97343.69;7392176;19;19919;-84
2023/03/23 00:26:02;;;;;;;;;;;;;;;27.11;36.85;97333.47;7396847;19;19922;-83
2023/03/23 00:28:28;;;;;;;;;;;;;;;27.17;36.88;97331.59;7391199;19;19942;-84
2023/03/23 00:30:57;;;;;;;;;;;;;;;27.03;36.94;97328.13;7390619;19;19937;-84
2023/03/23 00:33:26;;;;;;;;;;;;;;;26.83;37.12;97339.44;7393367;19;19975;-84
2023/03/23 00:35:52;;;;;;;;;;;;;;;26.02;37.13;97349.34;7397326;19;20322;-84
2023/03/23 00:38:19;;;;;;;;;;;;;;;26.76;37.04;97346.28;7392514;19;19922;-83
2023/03/23 00:40:46;;;;;;;;;;;;;;;27.14;36.40;97350.03;7393112;19;19935;-84
2023/03/23 00:43:16;;;;;;;;;;;;;;;27.13;36.03;97359.25;7393605;19;19926;-84
2023/03/23 00:45:44;;;;;;;;;;;;;;;25.85;37.02;97372.78;7396265;19;19919;-84
2023/03/23 00:48:13;;;;;;;;;;;;;;;24.36;40.83;97379.47;7393944;19;20333;-83
2023/03/23 00:50:39;;;;;;;;;;;;;;;26.81;36.99;97378.63;7392494;19;20251;-83
2023/03/23 00:53:06;;;;;;;;;;;;;;;27.07;36.53;97379.75;7392176;19;19915;-84
2023/03/23 00:55:33;;;;;;;;;;;;;;;27.31;36.14;97380.75;7396023;19;19918;-83
2023/03/23 00:57:59;;;;;;;;;;;;;;;27.22;35.93;97383.94;7391965;19;19918;-83
2023/03/23 01:00:26;;;;;;;;;;;;;;;27.39;35.36;97392.56;7391720;19;19922;-83
2023/03/23 01:02:53;;;;;;;;;;;;;;;27.30;35.16;97398.56;7392214;19;20265;-83
2023/03/23 01:05:19;;;;;;;;;;;;;;;27.20;35.38;97398.88;7394151;19;20346;-85
2023/03/23 01:07:45;;;;;;;;;;;;;;;27.18;34.91;97398.06;7391883;19;19910;-83
2023/03/23 01:10:15;;;;;;;;;;;;;;;27.15;35.28;97402.97;7391179;19;20345;-83
2023/03/23 01:12:43;;;;;;;;;;;;;;;27.08;34.77;97406.94;7390154;19;19918;-83
2023/03/23 01:15:13;;;;;;;;;;;;;;;27.09;35.05;97407.69;7392177;19;19922;-83
2023/03/23 01:17:39;;;;;;;;;;;;;;;27.16;34.60;97410.13;7390468;19;19955;-83
2023/03/23 01:20:06;;;;;;;;;;;;;;;26.69;34.86;97413.06;7389638;19;19914;-83
2023/03/23 01:22:32;;;;;;;;;;;;;;;26.89;34.07;97414.00;7391090;19;20445;-83
2023/03/23 01:24:58;;;;;;;;;;;;;;;26.67;34.54;97430.09;7392472;19;19918;-82
2023/03/23 01:27:24;;;;;;;;;;;;;;;26.58;34.70;97436.81;7392330;19;19922;-83
2023/03/23 01:29:51;;;;;;;;;;;;;;;26.87;34.36;97427.44;7390486;19;19915;-83
2023/03/23 01:32:17;;;;;;;;;;;;;;;26.93;33.75;97434.16;7390031;19;19937;-83
2023/03/23 01:34:43;;;;;;;;;;;;;;;26.83;34.10;97447.97;7391058;19;20326;-83
2023/03/23 01:37:09;;;;;;;;;;;;;;;26.87;33.81;97453.91;7390844;19;20336;-83
2023/03/23 01:39:36;;;;;;;;;;;;;;;26.84;33.57;97451.56;7390308;19;19918;-84
2023/03/23 01:42:02;;;;;;;;;;;;;;;26.82;33.73;97452.22;7388926;19;20351;-84
2023/03/23 01:44:31;;;;;;;;;;;;;;;26.74;33.98;97451.88;7390397;19;19956;-83
2023/03/23 01:47:05;;;;;;;;;;;;;;;26.70;33.69;97457.38;7389338;19;19931;-83
2023/03/23 01:49:41;;;;;;;;;;;;;;;26.59;33.83;97464.00;7394421;19;19947;-82
2023/03/23 01:52:11;;;;;;;;;;;;;;;26.58;33.85;97465.38;7390240;19;19941;-83
2023/03/23 01:54:39;;;;;;;;;;;;;;;26.00;34.49;97462.59;7391151;19;20052;-83
2023/03/23 01:57:07;;;;;;;;;;;;;;;26.01;34.14;97469.78;7390409;19;20337;-83
2023/03/23 01:59:35;;;;;;;;;;;;;;;26.12;34.44;97474.63;7389038;19;20258;-82
2023/03/23 02:02:16;;;;;;;;;;;;;;;26.04;33.94;97479.91;7391760;19;19936;-83
2023/03/23 02:04:42;;;;;;;;;;;;;;;25.63;34.87;97476.44;7392627;19;19918;-83
2023/03/23 02:07:09;;;;;;;;;;;;;;;22.76;37.32;97481.72;7390982;19;19918;-83
2023/03/23 02:09:35;;;;;;;;;;;;;;;25.15;34.92;97475.44;7389450;19;20128;-83
2023/03/23 02:12:01;;;;;;;;;;;;;;;24.48;36.00;97482.53;7388960;19;19918;-83
2023/03/23 02:14:28;;;;;;;;;;;;;;;25.54;34.69;97478.16;7391683;19;19939;-83
2023/03/23 02:16:54;;;;;;;;;;;;;;;25.80;34.64;97473.03;7388777;19;20028;-83
2023/03/23 02:19:40;;;;;;;;;;;;;;;25.68;34.29;97473.19;7393299;19;19978;-83
2023/03/23 02:22:25;;;;;;;;;;;;;;;25.65;34.12;97468.75;7388939;19;19982;-83
2023/03/23 02:24:51;;;;;;;;;;;;;;;25.61;34.38;97467.81;7391154;19;19933;-82
2023/03/23 02:27:26;;;;;;;;;;;;;;;25.56;34.62;97475.41;7389435;19;20325;-83
2023/03/23 02:30:01;;;;;;;;;;;;;;;25.55;34.48;97471.81;7389193;19;20275;-82
2023/03/23 02:32:30;;;;;;;;;;;;;;;25.54;34.34;97470.34;7389044;19;20242;-83
2023/03/23 02:34:58;;;;;;;;;;;;;;;25.44;34.38;97472.72;7390328;19;20334;-83
2023/03/23 02:37:28;;;;;;;;;;;;;;;25.36;34.35;97472.25;7389116;19;19955;-83
2023/03/23 02:40:11;;;;;;;;;;;;;;;25.31;34.31;97482.00;7390519;19;19937;-83
2023/03/23 02:42:40;;;;;;;;;;;;;;;25.22;33.93;97485.03;7389792;19;19953;-84
2023/03/23 02:45:09;;;;;;;;;;;;;;;25.03;34.52;97485.47;7392568;19;19960;-83
2023/03/23 02:47:36;;;;;;;;;;;;;;;25.12;34.54;97487.38;7390419;19;20350;-84
2023/03/23 02:50:02;;;;;;;;;;;;;;;24.96;34.46;97475.88;7389488;19;19915;-84
2023/03/23 02:52:31;;;;;;;;;;;;;;;24.90;35.00;97484.09;7390917;19;19921;-82
2023/03/23 02:54:59;;;;;;;;;;;;;;;24.59;35.13;97478.13;7397876;19;19983;-82
2023/03/23 02:57:27;;;;;;;;;;;;;;;24.39;35.31;97483.47;7395073;19;19911;-84
2023/03/23 02:59:55;;;;;;;;;;;;;;;24.37;35.27;97491.16;7395604;19;19950;-84
2023/03/23 03:02:24;;;;;;;;;;;;;;;24.27;35.56;97493.44;7397214;19;19925;-83
2023/03/23 03:05:13;;;;;;;;;;;;;;;24.07;35.85;97501.59;7397771;19;19926;-84
2023/03/23 03:07:49;;;;;;;;;;;;;;;23.96;36.13;97493.81;7394411;19;19919;-83
2023/03/23 03:10:26;;;;;;;;;;;;;;;23.97;36.04;97493.19;7395637;19;19922;-84
2023/03/23 03:12:56;;;;;;;;;;;;;;;23.87;36.26;97495.47;7396834;19;19935;-83
2023/03/23 03:15:34;;;;;;;;;;;;;;;23.83;36.00;97491.66;7400505;19;19933;-82
2023/03/23 03:18:08;;;;;;;;;;;;;;;23.81;36.52;97495.13;7399023;19;19962;-83
2023/03/23 03:20:37;;;;;;;;;;;;;;;23.75;36.54;97491.94;7396289;19;20381;-84
2023/03/23 03:23:04;;;;;;;;;;;;;;;23.71;36.26;97488.88;7394958;19;19918;-83
2023/03/23 03:25:31;;;;;;;;;;;;;;;23.71;36.25;97486.03;7399148;19;19922;-83
2023/03/23 03:27:59;;;;;;;;;;;;;;;23.70;36.65;97487.38;7394095;19;19970;-84
2023/03/23 03:30:37;;;;;;;;;;;;;;;23.67;36.61;97488.59;7394283;19;19911;-83
2023/03/23 03:33:04;;;;;;;;;;;;;;;23.61;36.63;97488.28;7395009;19;20390;-83
2023/03/23 03:35:31;;;;;;;;;;;;;;;24.09;36.22;97490.31;7397895;19;19919;-83
2023/03/23 03:38:04;;;;;;;;;;;;;;;24.48;35.25;97501.72;7395076;19;19970;-83
2023/03/23 03:40:31;;;;;;;;;;;;;;;24.64;35.61;97497.66;7394078;19;20342;-83
2023/03/23 03:42:56;;;;;;;;;;;;;;;24.75;35.36;97508.22;7394196;19;19926;-83
2023/03/23 03:45:23;;;;;;;;;;;;;;;24.71;35.25;97501.56;7396429;19;19919;-84
2023/03/23 03:47:49;;;;;;;;;;;;;;;24.69;34.96;97498.59;7394166;19;19922;-83
2023/03/23 03:50:16;;;;;;;;;;;;;;;24.57;35.20;97492.25;7393512;19;20564;-83
2023/03/23 03:52:42;;;;;;;;;;;;;;;24.49;35.28;97492.56;7394405;19;19919;-83
2023/03/23 03:55:10;;;;;;;;;;;;;;;24.30;35.27;97492.91;7396533;19;20004;-83
2023/03/23 03:57:38;;;;;;;;;;;;;;;24.23;35.35;97505.34;7393016;19;20258;-83
2023/03/23 04:00:14;;;;;;;;;;;;;;;24.26;35.09;97503.31;7392809;19;20281;-83
2023/03/23 04:02:41;;;;;;;;;;;;;;;24.24;35.03;97506.06;7393643;19;19925;-83
2023/03/23 04:05:08;;;;;;;;;;;;;;;24.12;35.24;97502.56;7395065;19;19922;-84
2023/03/23 04:07:37;;;;;;;;;;;;;;;24.16;35.30;97499.94;7393945;19;19917;-82
2023/03/23 04:10:05;;;;;;;;;;;;;;;24.09;35.25;97508.13;7392936;19;19922;-83
2023/03/23 04:12:31;;;;;;;;;;;;;;;23.98;35.44;97503.19;7393010;19;20294;-83
2023/03/23 04:14:58;;;;;;;;;;;;;;;23.90;35.52;97513.38;7395152;19;20230;-83
2023/03/23 04:17:35;;;;;;;;;;;;;;;23.83;35.50;97508.69;7393698;19;20297;-83
2023/03/23 04:20:07;;;;;;;;;;;;;;;23.63;35.74;97502.59;7393378;19;20284;-83
2023/03/23 04:22:33;;;;;;;;;;;;;;;23.55;35.48;97502.13;7392598;19;19919;-82
2023/03/23 04:25:04;;;;;;;;;;;;;;;23.56;35.60;97506.47;7393294;19;20258;-82
2023/03/23 04:27:32;;;;;;;;;;;;;;;23.59;35.63;97502.34;7391379;19;19918;-82
2023/03/23 04:30:00;;;;;;;;;;;;;;;23.62;35.96;97503.97;7391229;19;19922;-82
2023/03/23 04:32:45;;;;;;;;;;;;;;;23.26;35.85;97504.63;7393030;19;19929;-82
2023/03/23 04:35:16;;;;;;;;;;;;;;;23.52;36.22;97509.03;7393865;19;19918;-82
2023/03/23 04:37:47;;;;;;;;;;;;;;;23.49;35.83;97503.88;7391926;19;19918;-82
2023/03/23 04:40:16;;;;;;;;;;;;;;;23.54;35.88;97505.59;7391649;19;19963;-82
2023/03/23 04:42:48;;;;;;;;;;;;;;;23.54;35.77;97499.91;7391599;19;19919;-82
2023/03/23 04:45:34;;;;;;;;;;;;;;;23.47;36.33;97495.97;7395179;19;19939;-82
2023/03/23 04:48:01;;;;;;;;;;;;;;;23.46;36.32;97496.59;7392056;19;19925;-82
2023/03/23 04:50:39;;;;;;;;;;;;;;;23.61;36.40;97501.72;7390861;19;19914;-82
2023/03/23 04:53:17;;;;;;;;;;;;;;;23.52;36.52;97496.97;7391340;19;20330;-82
2023/03/23 04:55:44;;;;;;;;;;;;;;;23.65;36.21;97504.84;7394206;19;19918;-82
2023/03/23 04:58:14;;;;;;;;;;;;;;;23.59;36.05;97508.03;7390099;19;19918;-82
2023/03/23 05:00:58;;;;;;;;;;;;;;;23.77;36.12;97502.69;7392612;19;19940;-82
2023/03/23 05:03:26;;;;;;;;;;;;;;;23.75;36.03;97511.84;7393371;19;19914;-83
2023/03/23 05:05:55;;;;;;;;;;;;;;;23.65;36.28;97511.22;7395753;19;19937;-82
2023/03/23 05:08:22;;;;;;;;;;;;;;;23.54;36.47;97514.13;7391650;19;20310;-84
2023/03/23 05:10:53;;;;;;;;;;;;;;;23.47;36.32;97517.97;7390853;19;19938;-83
2023/03/23 05:13:20;;;;;;;;;;;;;;;23.21;36.56;97515.03;7390932;19;19915;-82
2023/03/23 05:15:49;;;;;;;;;;;;;;;23.05;37.00;97514.03;7392974;19;20262;-82
2023/03/23 05:18:15;;;;;;;;;;;;;;;23.15;36.66;97513.94;7393057;19;19919;-82
2023/03/23 05:20:42;;;;;;;;;;;;;;;23.16;36.98;97509.72;7391007;19;19947;-83
2023/03/23 05:23:14;;;;;;;;;;;;;;;23.11;36.94;97510.81;7390611;19;19915;-82
2023/03/23 05:25:41;;;;;;;;;;;;;;;23.27;36.84;97506.13;7393388;19;19943;-82
2023/03/23 05:28:13;;;;;;;;;;;;;;;23.00;37.18;97511.59;7389947;19;19922;-83
2023/03/23 05:30:50;;;;;;;;;;;;;;;11.49;85.34;97535.03;7389461;19;19951;-82
2023/03/23 05:33:18;;;;;;;;;;;;;;;9.38;100.00;97537.69;7390168;19;19953;-82
2023/03/23 05:35:48;;;;;;;;;;;;;;;10.23;100.00;97541.59;7392653;19;19922;-82
2023/03/23 05:38:17;;;;;;;;;;;;;;;10.32;100.00;97536.41;7389770;19;19922;-82
2023/03/23 05:40:44;;;;;;;;;;;;;;;11.47;100.00;97537.59;7389661;19;19930;-82
2023/03/23 05:43:25;;;;;;;;;;;;;;;9.49;100.00;97525.69;7390810;19;20267;-81
2023/03/23 05:46:08;;;;;;;;;;;;;;;8.57;100.00;97527.72;7393725;19;19921;-83
2023/03/23 05:48:36;;;;;;;;;;;;;;;7.93;100.00;97534.75;7391469;19;20266;-81
2023/03/23 05:51:02;;;;;;;;;;;;;;;6.20;100.00;97537.81;7389131;19;20571;-83
2023/03/23 05:53:31;;;;;;;;;;;;;;;6.62;100.00;97537.53;7389209;19;19926;-82
2023/03/23 05:55:58;;;;;;;;;;;;;;;6.82;100.00;97537.25;7393919;19;19907;-82
2023/03/23 05:58:38;;;;;;;;;;;;;;;6.28;100.00;97536.06;7388284;19;19919;-82
2023/03/23 06:01:08;;;;;;;;;;;;;;;6.24;100.00;97532.81;7390005;19;19923;-83
2023/03/23 06:03:35;;;;;;;;;;;;;;;5.59;100.00;97540.47;7391336;19;20256;-84
2023/03/23 06:06:11;;;;;;;;;;;;;;;8.39;100.00;97522.84;7394690;19;19921;-85
2023/03/23 06:09:09;;;;;;;;;;;;;;;6.84;100.00;97534.75;7391378;19;19922;-85
2023/03/23 06:11:55;;;;;;;;;;;;;;;10.21;100.00;97525.44;7389697;19;19915;-83
2023/03/23 06:14:43;;;;;;;;;;;;;;;8.84;100.00;97520.38;7391328;19;19933;-84
2023/03/23 06:17:11;;;;;;;;;;;;;;;15.00;100.00;97514.44;7390161;19;19939;-84
2023/03/23 06:19:37;;;;;;;;;;;;;;;16.58;80.47;97502.59;7395119;19;19931;-83
2023/03/23 06:22:11;;;;;;;;;;;;;;;8.75;100.00;97520.75;7391614;19;19918;-83
2023/03/23 06:25:13;;;;;;;;;;;;;;;8.30;100.00;97520.38;7390917;19;19926;-84
2023/03/23 06:27:42;;;;;;;;;;;;;;;6.66;100.00;97524.97;7391151;19;20194;-84
2023/03/23 06:30:08;;;;;;;;;;;;;;;9.68;100.00;97521.63;7398424;19;19939;-84
2023/03/23 06:32:35;;;;;;;;;;;;;;;10.14;100.00;97517.72;7397811;19;19919;-84
2023/03/23 06:35:03;;;;;;;;;;;;;;;10.71;100.00;97509.94;7399671;19;19916;-84
2023/03/23 06:37:41;;;;;;;;;;;;;;;10.83;100.00;97502.91;7397772;19;19929;-84
2023/03/23 06:40:13;;;;;;;;;;;;;;;10.78;100.00;97512.09;7399221;19;19919;-84
2023/03/23 06:42:43;;;;;;;;;;;;;;;10.82;100.00;97512.53;7400534;19;19915;-84
2023/03/23 06:45:30;;;;;;;;;;;;;;;11.56;100.00;97505.75;7400895;19;19918;-83
2023/03/23 06:48:15;;;;;;;;;;;;;;;11.51;100.00;97509.41;7400840;19;19926;-84
2023/03/23 06:50:44;;;;;;;;;;;;;;;11.55;100.00;97505.00;7400399;19;20279;-85
2023/03/23 06:53:11;;;;;;;;;;;;;;;11.74;100.00;97511.19;7401450;19;19915;-85
2023/03/23 06:55:38;;;;;;;;;;;;;;;12.16;100.00;97512.03;7399535;19;19953;-83
2023/03/23 06:58:05;;;;;;;;;;;;;;;17.70;95.57;97493.63;7395832;19;19919;-83
2023/03/23 07:00:32;;;;;;;;;;;;;;;16.86;96.98;97500.69;7398992;19;19915;-83
2023/03/23 07:02:58;;;;;;;;;;;;;;;18.42;88.67;97497.91;7398387;19;20274;-83
2023/03/23 07:05:26;;;;;;;;;;;;;;;15.42;91.40;97509.16;7397559;19;20521;-83
2023/03/23 07:07:52;;;;;;;;;;;;;;;9.30;100.00;97519.38;7399475;19;20405;-82
2023/03/23 07:10:34;;;;;;;;;;;;;;;13.80;100.00;97503.81;7395851;19;20363;-83
2023/03/23 07:13:01;;;;;;;;;;;;;;;10.40;100.00;97517.03;7396349;19;19936;-82
2023/03/23 07:15:32;;;;;;;;;;;;;;;14.25;100.00;97509.56;7396342;19;19926;-82
2023/03/23 07:17:58;;;;;;;;;;;;;;;20.20;83.33;97504.28;7394614;19;20321;-82
2023/03/23 07:20:32;;;;;;;;;;;;;;;21.37;72.06;97503.94;7392726;19;19919;-82
2023/03/23 07:22:58;;;;;;;;;;;;;;;22.29;66.49;97497.91;7393872;19;19923;-82
2023/03/23 07:25:38;;;;;;;;;;;;;;;22.47;63.15;97499.81;7396988;19;19922;-82
2023/03/23 07:28:06;;;;;;;;;;;;;;;22.46;62.55;97495.47;7393579;19;20238;-82
2023/03/23 07:30:32;;;;;;;;;;;;;;;23.59;58.16;97493.84;7393907;19;20405;-82
2023/03/23 07:32:58;;;;;;;;;;;;;;;25.03;53.98;97494.03;7393397;19;19925;-83
2023/03/23 07:35:25;;;;;;;;;;;;;;;26.05;49.78;97498.50;7395946;19;19918;-83
2023/03/23 07:37:59;;;;;;;;;;;;;;;26.48;47.49;97499.19;7393436;19;19918;-83
2023/03/23 07:40:26;;;;;;;;;;;;;;;26.53;45.88;97477.28;7393033;19;20110;-82
2023/03/23 07:42:57;;;;;;;;;;;;;;;26.40;45.10;97493.06;7393806;19;19922;-81
2023/03/23 07:45:40;;;;;;;;;;;;;;;26.83;44.14;97484.41;7396557;19;19923;-82
2023/03/23 07:48:07;;;;;;;;;;;;;;;26.98;43.14;97490.06;7392794;19;19963;-82
2023/03/23 07:50:35;;;;;;;;;;;;;;;27.19;43.07;97482.41;7394023;19;20234;-82
2023/03/23 07:53:04;;;;;;;;;;;;;;;27.35;42.44;97488.84;7395597;19;19919;-82
2023/03/23 07:55:31;;;;;;;;;;;;;;;27.55;41.83;97490.44;7396173;19;19919;-82
2023/03/23 07:58:04;;;;;;;;;;;;;;;27.76;41.44;97501.34;7392048;19;19927;-82
2023/03/23 08:00:30;;;;;;;;;;;;;;;27.72;40.36;97503.34;7391947;19;19918;-82
2023/03/23 08:02:57;;;;;;;;;;;;;;;27.75;40.44;97499.16;7393141;19;19927;-81
2023/03/23 08:05:27;;;;;;;;;;;;;;;27.87;40.28;97496.81;7394632;19;19923;-81
2023/03/23 08:08:12;;;;;;;;;;;;;;;27.97;39.82;97500.09;7396353;19;20458;-82
2023/03/23 08:11:04;;;;;;;;;;;;;;;28.00;39.64;97504.53;7392053;19;19921;-81
2023/03/23 08:13:51;;;;;;;;;;;;;;;28.16;39.71;97504.44;7391641;19;19926;-81
2023/03/23 08:16:19;;;;;;;;;;;;;;;28.15;39.37;97500.84;7392941;19;19919;-81
2023/03/23 08:19:05;;;;;;;;;;;;;;;28.39;39.21;97498.94;7396174;19;20413;-81
2023/03/23 08:22:06;;;;;;;;;;;;;;;28.46;39.03;97503.50;7391667;19;19931;-81
2023/03/23 08:24:50;;;;;;;;;;;;;;;28.48;39.01;97505.72;7394223;19;19946;-81
2023/03/23 08:27:29;;;;;;;;;;;;;;;28.59;38.81;97515.47;7394137;19;19922;-81
2023/03/23 08:30:25;;;;;;;;;;;;;;;28.75;38.48;97521.81;7389338;19;19961;-81
2023/03/23 08:33:10;;;;;;;;;;;;;;;28.76;38.48;97517.56;7392050;19;19931;-82
2023/03/23 08:36:02;;;;;;;;;;;;;;;28.88;38.37;97518.00;7389606;19;19946;-82
2023/03/23 08:38:52;;;;;;;;;;;;;;;29.01;38.07;97526.41;7391284;19;19926;-82
2023/03/23 08:41:54;;;;;;;;;;;;;;;29.00;38.16;97518.47;7390418;19;19918;-81
2023/03/23 08:44:38;;;;;;;;;;;;;;;28.95;37.72;97514.72;7393060;19;19946;-82
2023/03/23 08:47:37;;;;;;;;;;;;;;;28.76;37.37;97511.84;7389951;19;19956;-82
2023/03/23 08:50:30;;;;;;;;;;;;;;;28.80;37.87;97512.00;7387210;19;19922;-81
2023/03/23 08:52:59;;;;;;;;;;;;;;;28.78;37.33;97512.66;7390938;19;19915;-81
2023/03/23 08:55:43;;;;;;;;;;;;;;;28.59;37.60;97519.06;7395090;19;19925;-82
2023/03/23 08:58:39;;;;;;;;;;;;;;;28.73;37.81;97519.63;7390761;19;19918;-82
2023/03/23 09:01:24;;;;;;;;;;;;;;;29.01;37.75;97514.22;7390746;19;19925;-81
2023/03/23 09:04:05;;;;;;;;;;;;;;;29.33;37.29;97511.78;7390550;19;19930;-81
2023/03/23 09:06:56;;;;;;;;;;;;;;;29.24;37.50;97519.38;7395713;19;19918;-82
2023/03/23 09:09:22;;;;;;;;;;;;;;;29.14;37.21;97507.53;7390721;19;19983;-81
2023/03/23 09:11:47;;;;;;;;;;;;;;;29.28;37.16;97510.94;7390794;19;20250;-81
2023/03/23 09:14:13;;;;;;;;;;;;;;;29.52;36.91;97503.16;7391779;19;20349;-81
2023/03/23 09:16:40;;;;;;;;;;;;;;;29.54;36.78;97503.25;7389119;19;19911;-81
2023/03/23 09:19:08;;;;;;;;;;;;;;;29.54;37.03;97503.25;7393708;19;19922;-81
2023/03/23 09:21:34;;;;;;;;;;;;;;;29.53;37.16;97509.66;7388796;19;19922;-81
2023/03/23 09:24:01;;;;;;;;;;;;;;;29.86;37.06;97507.28;7390364;19;19944;-82
2023/03/23 09:26:27;;;;;;;;;;;;;;;29.78;36.82;97512.72;7391280;19;19926;-82
2023/03/23 09:28:56;;;;;;;;;;;;;;;29.82;36.46;97506.41;7389821;19;20337;-82
2023/03/23 09:31:23;;;;;;;;;;;;;;;29.62;36.37;97520.75;7390209;19;20338;-82
2023/03/23 09:33:52;;;;;;;;;;;;;;;29.33;36.42;97521.13;7389745;19;19915;-81
2023/03/23 09:36:21;;;;;;;;;;;;;;;29.03;36.93;97520.75;7389577;19;19918;-82
2023/03/23 09:38:48;;;;;;;;;;;;;;;29.50;36.65;97523.19;7390490;19;19919;-82
2023/03/23 09:41:26;;;;;;;;;;;;;;;30.12;35.82;97521.00;7388737;19;20353;-82
2023/03/23 09:44:11;;;;;;;;;;;;;;;30.05;35.88;97525.81;7389121;19;19919;-82
2023/03/23 09:47:10;;;;;;;;;;;;;;;30.34;35.53;97519.59;7389449;19;19907;-82
2023/03/23 09:49:40;;;;;;;;;;;;;;;30.27;35.88;97537.28;7388093;19;19918;-81
2023/03/23 09:52:16;;;;;;;;;;;;;;;30.26;35.81;97533.69;7389342;19;20541;-82
2023/03/23 09:54:53;;;;;;;;;;;;;;;30.15;35.96;97525.44;7391856;19;19922;-82
2023/03/23 09:57:32;;;;;;;;;;;;;;;30.45;35.54;97520.69;7390234;19;20313;-83
2023/03/23 10:00:07;;;;;;;;;;;;;;;30.33;35.16;97526.03;7389524;19;19926;-83
2023/03/23 10:02:48;;;;;;;;;;;;;;;30.44;34.85;97522.06;7394315;19;19915;-83
2023/03/23 10:05:23;;;;;;;;;;;;;;;30.29;35.41;97520.13;7398860;19;19919;-81
2023/03/23 10:07:49;;;;;;;;;;;;;;;30.34;35.54;97521.75;7396688;19;19923;-83
2023/03/23 10:10:17;;;;;;;;;;;;;;;30.55;35.36;97521.00;7395670;19;19915;-82
2023/03/23 10:12:56;;;;;;;;;;;;;;;30.74;35.57;97517.25;7397646;19;19925;-82
2023/03/23 10:15:41;;;;;;;;;;;;;;;31.15;35.10;97522.09;7401106;19;19942;-82
2023/03/23 10:18:12;;;;;;;;;;;;;;;31.33;34.76;97517.59;7398747;19;19914;-82
2023/03/23 10:20:50;;;;;;;;;;;;;;;31.29;34.54;97520.34;7394919;19;19922;-82
2023/03/23 10:23:20;;;;;;;;;;;;;;;31.40;34.42;97522.09;7395997;19;19926;-81
2023/03/23 10:25:55;;;;;;;;;;;;;;;31.47;34.52;97502.16;7398855;19;19927;-82
2023/03/23 10:28:24;;;;;;;;;;;;;;;31.75;34.49;97514.41;7394139;19;19922;-81
2023/03/23 10:30:57;;;;;;;;;;;;;;;32.13;34.46;97498.13;7394205;19;19922;-81
2023/03/23 10:33:33;;;;;;;;;;;;;;;32.34;34.38;97494.31;7394630;19;19914;-81
2023/03/23 10:36:05;;;;;;;;;;;;;;;32.48;33.44;97494.69;7398102;19;19927;-81
2023/03/23 10:38:43;;;;;;;;;;;;;;;32.55;33.04;97502.03;7393830;19;19978;-81
2023/03/23 10:41:16;;;;;;;;;;;;;;;32.35;32.59;97492.91;7393951;19;20334;-81
2023/03/23 10:43:43;;;;;;;;;;;;;;;30.91;35.11;97490.50;7395859;19;20330;-81
2023/03/23 10:46:19;;;;;;;;;;;;;;;31.79;33.60;97482.84;7401664;19;19968;-79
2023/03/23 10:48:49;;;;;;;;;;;;;;;32.06;33.14;97485.72;7400474;19;19911;-79
2023/03/23 10:51:17;;;;;;;;;;;;;;;32.11;33.51;97489.44;7399905;19;19919;-81
2023/03/23 10:53:47;;;;;;;;;;;;;;;32.59;33.03;97484.84;7396228;19;19919;-80
2023/03/23 10:56:22;;;;;;;;;;;;;;;32.71;32.79;97479.34;7399848;19;19922;-80
2023/03/23 10:58:48;;;;;;;;;;;;;;;32.72;31.52;97486.56;7393455;19;19933;-81
2023/03/23 11:01:18;;;;;;;;;;;;;;;32.35;32.02;97490.03;7395110;19;19925;-81
2023/03/23 11:03:48;;;;;;;;;;;;;;;31.95;32.23;97506.31;7395884;19;19914;-81
2023/03/23 11:06:32;;;;;;;;;;;;;;;31.55;32.54;97516.75;7400068;19;19923;-82
2023/03/23 11:09:09;;;;;;;;;;;;;;;31.60;33.32;97524.81;7394971;19;19932;-83
2023/03/23 11:11:42;;;;;;;;;;;;;;;31.45;33.51;97536.63;7394199;19;19918;-83
2023/03/23 11:14:38;;;;;;;;;;;;;;;31.49;34.13;97531.00;7394089;19;19930;-84
2023/03/23 11:17:06;;;;;;;;;;;;;;;31.73;34.79;97517.25;7394199;19;19990;-83
2023/03/23 11:19:35;;;;;;;;;;;;;;;31.69;34.04;97520.00;7398874;19;19979;-81
2023/03/23 11:22:04;;;;;;;;;;;;;;;31.57;33.99;97525.44;7393914;19;19926;-82
2023/03/23 11:24:40;;;;;;;;;;;;;;;31.64;34.21;97524.19;7395818;19;19922;-82
2023/03/23 11:27:08;;;;;;;;;;;;;;;31.60;33.83;97524.81;7393534;19;19923;-82
2023/03/23 11:29:35;;;;;;;;;;;;;;;31.66;33.87;97530.00;7393227;19;19962;-81
2023/03/23 11:32:07;;;;;;;;;;;;;;;31.73;33.79;97528.75;7392803;19;19919;-81
2023/03/23 11:34:35;;;;;;;;;;;;;;;31.85;33.79;97520.44;7394559;19;19995;-81
2023/03/23 11:37:03;;;;;;;;;;;;;;;31.84;34.06;97518.94;7393178;19;20543;-81
2023/03/23 11:39:30;;;;;;;;;;;;;;;31.62;33.33;97521.97;7393176;19;19923;-81
2023/03/23 11:41:58;;;;;;;;;;;;;;;31.59;33.42;97513.97;7394891;19;19933;-81
2023/03/23 11:44:31;;;;;;;;;;;;;;;31.70;32.44;97507.81;7396510;19;20389;-81
2023/03/23 11:46:57;;;;;;;;;;;;;;;31.95;32.68;97506.31;7394514;19;19952;-81
2023/03/23 11:49:33;;;;;;;;;;;;;;;32.13;32.04;97509.66;7395246;19;19974;-81
2023/03/23 11:52:23;;;;;;;;;;;;;;;32.12;32.68;97511.06;7391683;19;19930;-81
2023/03/23 11:54:52;;;;;;;;;;;;;;;32.26;32.06;97507.78;7392906;19;19911;-82
2023/03/23 11:57:18;;;;;;;;;;;;;;;32.16;32.46;97508.31;7392133;19;19940;-82
2023/03/23 11:59:45;;;;;;;;;;;;;;;32.06;32.69;97505.16;7391497;19;19993;-82
2023/03/23 12:02:30;;;;;;;;;;;;;;;32.07;32.83;97500.88;7392280;19;19927;-82
2023/03/23 12:04:56;;;;;;;;;;;;;;;32.40;32.93;97503.09;7393277;19;19915;-81
2023/03/23 12:07:22;;;;;;;;;;;;;;;32.78;33.33;97498.25;7390254;19;19919;-81
2023/03/23 12:10:05;;;;;;;;;;;;;;;22.02;46.03;97518.19;7390047;19;20301;-81
2023/03/23 12:12:46;;;;;;;;;;;;;;;17.74;87.32;97515.72;7390283;19;19921;-81
2023/03/23 12:15:25;;;;;;;;;;;;;;;28.16;51.18;97496.59;7394199;19;19926;-85
2023/03/23 12:17:51;;;;;;;;;;;;;;;30.81;40.11;97495.19;7394102;19;19931;-89
2023/03/23 12:20:23;;;;;;;;;;;;;;;31.35;37.02;97483.13;7393461;19;19922;-90
2023/03/23 12:22:49;;;;;;;;;;;;;;;31.50;35.10;97495.78;7392470;19;19939;-80
2023/03/23 12:25:28;;;;;;;;;;;;;;;31.69;35.02;97491.22;7393511;19;19966;-79
2023/03/23 12:28:12;;;;;;;;;;;;;;;31.71;35.08;97494.16;7393681;19;20345;-82
2023/03/23 12:31:03;;;;;;;;;;;;;;;31.86;34.36;97505.34;7392638;19;20038;-78
2023/03/23 12:33:38;;;;;;;;;;;;;;;32.13;33.48;97498.13;7397425;19;20373;-83
2023/03/23 12:36:35;;;;;;;;;;;;;;;32.62;32.81;97492.09;7397223;19;19942;-83
2023/03/23 12:39:00;;;;;;;;;;;;;;;33.07;31.88;97495.97;7390937;19;19955;-81
2023/03/23 12:42:02;;;;;;;;;;;;;;;33.01;31.34;97492.97;7395744;19;20334;-81
2023/03/23 12:44:35;;;;;;;;;;;;;;;33.01;30.79;97490.09;7390504;19;19975;-82
2023/03/23 12:47:08;;;;;;;;;;;;;;;33.09;30.39;97491.00;7391462;19;19915;-82
2023/03/23 12:49:41;;;;;;;;;;;;;;;33.20;30.38;97480.38;7394978;19;19914;-82
2023/03/23 12:52:22;;;;;;;;;;;;;;;33.05;30.23;97469.97;7391397;19;19910;-81
2023/03/23 12:54:54;;;;;;;;;;;;;;;33.13;30.24;97470.13;7393018;19;19918;-82
2023/03/23 12:57:27;;;;;;;;;;;;;;;33.10;30.08;97477.28;7392825;19;19914;-81
2023/03/23 12:59:57;;;;;;;;;;;;;;;33.28;29.47;97474.75;7394177;19;19919;-83
2023/03/23 13:02:29;;;;;;;;;;;;;;;33.42;29.51;97455.56;7396143;19;19915;-84
2023/03/23 13:05:02;;;;;;;;;;;;;;;33.71;29.16;97456.81;7397194;19;19918;-89
2023/03/23 13:07:33;;;;;;;;;;;;;;;33.69;29.21;97442.34;7401916;19;19932;-83
2023/03/23 13:10:03;;;;;;;;;;;;;;;33.58;28.86;97444.34;7401844;19;20539;-91
2023/03/23 13:12:30;;;;;;;;;;;;;;;33.58;29.30;97452.25;7399180;19;19974;-83